Allama Iqbal International Airport

Airport
ICAO code: 
OPLA
IATA Code: 
LHE
Summary
ICAO Region: 
APAC
Territory: 
Location: 
Lahore, Punjab
Serving: 
Lahore
Elevation: 
698 ft
Coordinates: 
Aerial View: 
31° 31' 13.561" N, 74° 24' 16.327" E
Airport BS: 
Bird Strike
Metar
Observation
OPLA 042325Z 00000KT 4000 FU SCT040 SCT100 14/09 Q1015 RMK QFE988 A29.99
Station
Lahore Airport
Date/Time
2021-12-04 23:25:00
Wind direction
Wind speed
00 kts
Lowest cloud amount
scattered clouds
Temperature
14°C
Dew point
9°C
Humidity
71%
QNH
1015 hPa
Weather condition
n/a

Allama Iqbal International Airport is the second-largest civil airport in Pakistan, serving Lahore, the capital of the Punjab province. Previously known as the Lahore International Airport until 2003, it was renamed after Allama Sir Muhammad Iqbal.

Climatology

Humid subtropical Climate/Winter-rainfall climate (Köppen climate classification Cwa).

Runways

Designator Length Width Surface Rops
18R/36L 2743 46 ASP Yes/Yes
18L/36R 3360 46 CON Yes/Yes
Airport map: 
Aerial View: 

Accidents and Serious Incidents at or in the vicinity of OPLA

SKYbrary Partners:

Safety knowledge contributed by: